createdAt,value
2022-09-06T00:01:50.405Z,21.49
2022-09-06T00:06:48.582Z,21.49
2022-09-06T00:11:46.685Z,21.28
2022-09-06T00:16:44.842Z,21.04
2022-09-06T00:21:44.306Z,21.07
2022-09-06T00:26:42.407Z,21.16
2022-09-06T00:31:40.626Z,21.28
2022-09-06T00:36:38.742Z,21.37
2022-09-06T00:41:38.434Z,21.35
2022-09-06T00:46:38.473Z,21.29
2022-09-06T00:51:38.722Z,21.30
2022-09-06T00:56:44.082Z,21.34
2022-09-06T01:01:42.346Z,21.41
2022-09-06T01:06:53.369Z,21.41
2022-09-06T01:12:09.399Z,21.46
2022-09-06T01:17:11.606Z,21.66
2022-09-06T01:22:21.370Z,21.34
2022-09-06T01:27:42.508Z,21.20
2022-09-06T01:32:50.824Z,21.21
2022-09-06T01:37:49.231Z,21.39
2022-09-06T01:42:51.041Z,21.26
2022-09-06T01:48:00.725Z,21.24
2022-09-06T01:53:10.614Z,21.07
2022-09-06T01:58:25.369Z,21.05
2022-09-06T02:03:30.295Z,21.02
2022-09-06T02:08:32.642Z,21.06
2022-09-06T02:13:34.625Z,21.13
2022-09-06T02:18:37.221Z,21.12
2022-09-06T02:23:39.520Z,21.18
2022-09-06T02:28:39.199Z,21.20
2022-09-06T02:33:38.310Z,21.29
2022-09-06T02:38:38.998Z,21.24
2022-09-06T02:43:38.481Z,21.26
2022-09-06T02:48:36.608Z,21.16
2022-09-06T02:53:34.858Z,21.20
2022-09-06T02:58:33.131Z,21.18
2022-09-06T03:03:32.610Z,21.16
2022-09-06T03:08:33.697Z,21.11
2022-09-06T03:13:35.261Z,20.91
2022-09-06T03:18:34.805Z,20.86
2022-09-06T03:23:34.804Z,20.68
2022-09-06T03:28:35.081Z,20.48
2022-09-06T03:33:34.630Z,20.47
2022-09-06T03:38:32.920Z,20.18
2022-09-06T03:43:33.311Z,19.98
2022-09-06T03:48:31.500Z,19.92
2022-09-06T03:53:31.137Z,19.88
2022-09-06T03:58:32.032Z,20.05
2022-09-06T04:03:30.239Z,20.10
2022-09-06T04:08:30.003Z,20.29
2022-09-06T04:13:30.249Z,20.34
2022-09-06T04:18:29.009Z,20.38
2022-09-06T04:23:28.783Z,20.35
2022-09-06T04:28:29.222Z,20.20
2022-09-06T04:33:28.129Z,20.27
2022-09-06T04:38:26.959Z,20.28
2022-09-06T04:43:25.450Z,20.40
2022-09-06T04:48:24.942Z,20.48
2022-09-06T04:53:23.099Z,20.56
2022-09-06T04:58:21.306Z,20.64
2022-09-06T05:03:19.758Z,20.69
2022-09-06T05:08:19.338Z,20.56
2022-09-06T05:13:17.425Z,20.68
2022-09-06T05:18:16.224Z,20.77
2022-09-06T05:23:14.432Z,20.69
2022-09-06T05:28:13.989Z,20.73
2022-09-06T05:33:13.291Z,20.54
2022-09-06T05:38:11.419Z,20.38
2022-09-06T05:43:09.513Z,20.83
2022-09-06T05:48:09.387Z,20.87
2022-09-06T05:53:07.470Z,20.92
2022-09-06T05:58:05.585Z,21.15
2022-09-06T06:03:03.668Z,21.08
2022-09-06T06:08:03.631Z,21.16
2022-09-06T06:13:01.746Z,21.50
2022-09-06T06:17:59.852Z,22.06
2022-09-06T06:22:58.080Z,22.38
2022-09-06T06:27:57.592Z,22.46
2022-09-06T06:32:55.706Z,22.60
2022-09-06T06:37:54.017Z,22.72
2022-09-06T06:42:52.149Z,22.56
2022-09-06T06:47:52.197Z,22.25
2022-09-06T06:52:50.341Z,23.48
2022-09-06T06:57:48.449Z,24.17
2022-09-06T07:02:46.610Z,25.24
2022-09-06T07:07:46.274Z,26.70
2022-09-06T07:12:44.445Z,26.42
2022-09-06T07:17:42.741Z,26.55
2022-09-06T07:22:41.397Z,26.36
2022-09-06T07:27:49.084Z,26.13
2022-09-06T07:32:47.986Z,26.31
2022-09-06T07:37:53.532Z,26.61
2022-09-06T07:42:52.978Z,27.70
2022-09-06T07:53:13.828Z,28.34
2022-09-06T07:58:13.974Z,27.81
2022-09-06T08:03:12.117Z,28.21
2022-09-06T08:13:29.911Z,28.65
2022-09-06T08:18:28.043Z,29.83
2022-09-06T08:23:26.242Z,30.65
2022-09-06T08:28:28.129Z,31.44
2022-09-06T08:33:28.467Z,30.65
2022-09-06T08:38:27.242Z,31.10
2022-09-06T08:43:25.647Z,32.05
2022-09-06T08:48:25.561Z,31.79
2022-09-06T08:53:25.651Z,31.43
2022-09-06T08:58:35.660Z,31.79
2022-09-06T09:03:36.757Z,32.57
2022-09-06T09:08:46.357Z,33.14
2022-09-06T09:13:55.639Z,33.59
2022-09-06T09:18:58.326Z,34.24
2022-09-06T09:23:59.308Z,34.17
2022-09-06T09:29:04.879Z,33.36
2022-09-06T09:34:04.809Z,33.71
2022-09-06T09:39:10.634Z,34.95
2022-09-06T09:44:12.000Z,33.24
2022-09-06T09:49:11.891Z,34.31
